sensor_id;sensor_type;location;lat;lon;timestamp;P1;durP1;ratioP1;P2;durP2;ratioP2
68593;SDS011;55563;52.416;13.548;2024-03-02T00:01:33;20.98;;;10.30;;
68593;SDS011;55563;52.416;13.548;2024-03-02T00:03:34;20.08;;;10.73;;
68593;SDS011;55563;52.416;13.548;2024-03-02T00:05:36;23.13;;;10.25;;
68593;SDS011;55563;52.416;13.548;2024-03-02T00:07:37;17.15;;;9.45;;
68593;SDS011;55563;52.416;13.548;2024-03-02T00:09:41;17.05;;;8.90;;
68593;SDS011;55563;52.416;13.548;2024-03-02T00:13:44;17.85;;;9.23;;
68593;SDS011;55563;52.416;13.548;2024-03-02T00:15:46;20.17;;;10.18;;
68593;SDS011;55563;52.416;13.548;2024-03-02T00:17:52;20.73;;;9.75;;
68593;SDS011;55563;52.416;13.548;2024-03-02T00:19:54;20.55;;;10.07;;
68593;SDS011;55563;52.416;13.548;2024-03-02T00:21:55;21.63;;;10.77;;
68593;SDS011;55563;52.416;13.548;2024-03-02T00:23:55;20.83;;;10.25;;
68593;SDS011;55563;52.416;13.548;2024-03-02T00:25:56;20.17;;;10.15;;
68593;SDS011;55563;52.416;13.548;2024-03-02T00:27:57;20.38;;;11.13;;
68593;SDS011;55563;52.416;13.548;2024-03-02T00:29:58;19.13;;;10.48;;
68593;SDS011;55563;52.416;13.548;2024-03-02T00:32:01;19.63;;;10.48;;
68593;SDS011;55563;52.416;13.548;2024-03-02T00:34:02;19.23;;;10.20;;
68593;SDS011;55563;52.416;13.548;2024-03-02T00:36:06;21.20;;;10.07;;
68593;SDS011;55563;52.416;13.548;2024-03-02T00:38:08;20.35;;;10.30;;
68593;SDS011;55563;52.416;13.548;2024-03-02T00:40:09;21.13;;;10.57;;
68593;SDS011;55563;52.416;13.548;2024-03-02T00:42:10;19.55;;;9.50;;
68593;SDS011;55563;52.416;13.548;2024-03-02T00:44:12;20.98;;;10.68;;
68593;SDS011;55563;52.416;13.548;2024-03-02T00:46:18;20.00;;;9.68;;
68593;SDS011;55563;52.416;13.548;2024-03-02T00:48:19;18.75;;;10.23;;
68593;SDS011;55563;52.416;13.548;2024-03-02T00:50:20;21.60;;;10.00;;
68593;SDS011;55563;52.416;13.548;2024-03-02T00:52:21;22.27;;;10.82;;
68593;SDS011;55563;52.416;13.548;2024-03-02T00:54:23;24.80;;;11.07;;
68593;SDS011;55563;52.416;13.548;2024-03-02T00:56:26;31.70;;;16.58;;
68593;SDS011;55563;52.416;13.548;2024-03-02T00:58:27;27.25;;;13.73;;
68593;SDS011;55563;52.416;13.548;2024-03-02T01:00:27;19.30;;;10.50;;
68593;SDS011;55563;52.416;13.548;2024-03-02T01:02:28;20.50;;;10.15;;
68593;SDS011;55563;52.416;13.548;2024-03-02T01:04:29;18.27;;;9.50;;
68593;SDS011;55563;52.416;13.548;2024-03-02T01:06:30;20.80;;;10.48;;
68593;SDS011;55563;52.416;13.548;2024-03-02T01:08:30;19.05;;;9.25;;
68593;SDS011;55563;52.416;13.548;2024-03-02T01:10:31;20.17;;;10.02;;
68593;SDS011;55563;52.416;13.548;2024-03-02T01:12:31;20.45;;;10.60;;
68593;SDS011;55563;52.416;13.548;2024-03-02T01:14:32;21.95;;;9.80;;
68593;SDS011;55563;52.416;13.548;2024-03-02T01:16:32;20.42;;;9.52;;
68593;SDS011;55563;52.416;13.548;2024-03-02T01:18:33;21.35;;;9.77;;
68593;SDS011;55563;52.416;13.548;2024-03-02T01:20:34;17.92;;;9.52;;
68593;SDS011;55563;52.416;13.548;2024-03-02T01:22:35;20.40;;;10.00;;
68593;SDS011;55563;52.416;13.548;2024-03-02T01:24:36;22.65;;;10.85;;
68593;SDS011;55563;52.416;13.548;2024-03-02T01:26:36;19.88;;;9.57;;
68593;SDS011;55563;52.416;13.548;2024-03-02T01:28:37;18.85;;;9.93;;
68593;SDS011;55563;52.416;13.548;2024-03-02T01:30:37;19.20;;;9.98;;
68593;SDS011;55563;52.416;13.548;2024-03-02T01:32:38;20.38;;;10.45;;
68593;SDS011;55563;52.416;13.548;2024-03-02T01:34:39;20.92;;;10.82;;
68593;SDS011;55563;52.416;13.548;2024-03-02T01:36:39;18.70;;;9.63;;
68593;SDS011;55563;52.416;13.548;2024-03-02T01:38:40;20.67;;;9.98;;
68593;SDS011;55563;52.416;13.548;2024-03-02T01:40:41;21.88;;;10.43;;
68593;SDS011;55563;52.416;13.548;2024-03-02T01:42:44;20.67;;;10.60;;
68593;SDS011;55563;52.416;13.548;2024-03-02T01:44:45;20.23;;;10.05;;
68593;SDS011;55563;52.416;13.548;2024-03-02T01:46:45;17.08;;;9.05;;
68593;SDS011;55563;52.416;13.548;2024-03-02T01:48:46;20.15;;;10.63;;
68593;SDS011;55563;52.416;13.548;2024-03-02T01:50:48;21.23;;;10.38;;
68593;SDS011;55563;52.416;13.548;2024-03-02T01:52:48;21.40;;;11.13;;
68593;SDS011;55563;52.416;13.548;2024-03-02T01:54:49;20.42;;;10.20;;
68593;SDS011;55563;52.416;13.548;2024-03-02T01:56:49;19.77;;;10.05;;
68593;SDS011;55563;52.416;13.548;2024-03-02T01:58:50;18.58;;;9.68;;
68593;SDS011;55563;52.416;13.548;2024-03-02T02:00:51;19.17;;;9.95;;
68593;SDS011;55563;52.416;13.548;2024-03-02T02:02:51;20.75;;;9.82;;
68593;SDS011;55563;52.416;13.548;2024-03-02T02:04:52;17.25;;;9.57;;
68593;SDS011;55563;52.416;13.548;2024-03-02T02:06:53;21.10;;;9.65;;
68593;SDS011;55563;52.416;13.548;2024-03-02T02:08:54;22.60;;;9.88;;
68593;SDS011;55563;52.416;13.548;2024-03-02T02:10:55;20.35;;;10.00;;
68593;SDS011;55563;52.416;13.548;2024-03-02T02:12:55;20.60;;;9.95;;
68593;SDS011;55563;52.416;13.548;2024-03-02T02:14:56;21.50;;;9.65;;
68593;SDS011;55563;52.416;13.548;2024-03-02T02:16:57;20.13;;;10.02;;
68593;SDS011;55563;52.416;13.548;2024-03-02T02:18:58;20.00;;;9.70;;
68593;SDS011;55563;52.416;13.548;2024-03-02T02:20:58;18.77;;;9.88;;
68593;SDS011;55563;52.416;13.548;2024-03-02T02:23:00;20.95;;;9.30;;
68593;SDS011;55563;52.416;13.548;2024-03-02T02:25:03;22.17;;;10.38;;
68593;SDS011;55563;52.416;13.548;2024-03-02T02:27:04;22.77;;;10.80;;
68593;SDS011;55563;52.416;13.548;2024-03-02T02:29:04;17.90;;;9.55;;
68593;SDS011;55563;52.416;13.548;2024-03-02T02:31:05;20.92;;;10.88;;
68593;SDS011;55563;52.416;13.548;2024-03-02T02:33:06;20.83;;;10.75;;
68593;SDS011;55563;52.416;13.548;2024-03-02T02:35:07;24.35;;;10.48;;
68593;SDS011;55563;52.416;13.548;2024-03-02T02:37:07;21.27;;;10.35;;
68593;SDS011;55563;52.416;13.548;2024-03-02T02:39:10;23.55;;;9.70;;
68593;SDS011;55563;52.416;13.548;2024-03-02T02:41:14;19.10;;;9.68;;
68593;SDS011;55563;52.416;13.548;2024-03-02T02:43:14;21.52;;;10.00;;
68593;SDS011;55563;52.416;13.548;2024-03-02T02:45:15;18.05;;;9.48;;
68593;SDS011;55563;52.416;13.548;2024-03-02T02:47:16;18.45;;;9.02;;
68593;SDS011;55563;52.416;13.548;2024-03-02T02:49:16;20.35;;;9.52;;
68593;SDS011;55563;52.416;13.548;2024-03-02T02:51:17;19.90;;;9.55;;
68593;SDS011;55563;52.416;13.548;2024-03-02T02:53:18;16.65;;;9.65;;
68593;SDS011;55563;52.416;13.548;2024-03-02T02:55:18;21.45;;;10.02;;
68593;SDS011;55563;52.416;13.548;2024-03-02T02:57:19;19.98;;;9.43;;
68593;SDS011;55563;52.416;13.548;2024-03-02T02:59:20;19.67;;;9.85;;
68593;SDS011;55563;52.416;13.548;2024-03-02T03:01:20;20.23;;;9.63;;
68593;SDS011;55563;52.416;13.548;2024-03-02T03:03:21;20.98;;;9.88;;
68593;SDS011;55563;52.416;13.548;2024-03-02T03:05:22;17.42;;;9.10;;
68593;SDS011;55563;52.416;13.548;2024-03-02T03:07:22;18.02;;;8.68;;
68593;SDS011;55563;52.416;13.548;2024-03-02T03:09:23;20.60;;;9.32;;
68593;SDS011;55563;52.416;13.548;2024-03-02T03:11:24;20.70;;;9.75;;
68593;SDS011;55563;52.416;13.548;2024-03-02T03:13:26;18.13;;;9.10;;
68593;SDS011;55563;52.416;13.548;2024-03-02T03:15:27;20.67;;;9.88;;
68593;SDS011;55563;52.416;13.548;2024-03-02T03:17:27;19.63;;;8.93;;
68593;SDS011;55563;52.416;13.548;2024-03-02T03:19:29;18.27;;;9.50;;
68593;SDS011;55563;52.416;13.548;2024-03-02T03:21:30;19.10;;;8.90;;
68593;SDS011;55563;52.416;13.548;2024-03-02T03:23:30;21.40;;;10.18;;
68593;SDS011;55563;52.416;13.548;2024-03-02T03:25:31;18.48;;;9.57;;
68593;SDS011;55563;52.416;13.548;2024-03-02T03:27:31;18.77;;;9.77;;
68593;SDS011;55563;52.416;13.548;2024-03-02T03:29:32;16.67;;;8.88;;
68593;SDS011;55563;52.416;13.548;2024-03-02T03:31:33;17.77;;;9.32;;
68593;SDS011;55563;52.416;13.548;2024-03-02T03:33:33;16.73;;;8.93;;
68593;SDS011;55563;52.416;13.548;2024-03-02T03:35:34;18.05;;;8.90;;
68593;SDS011;55563;52.416;13.548;2024-03-02T03:37:35;16.08;;;8.43;;
68593;SDS011;55563;52.416;13.548;2024-03-02T03:39:36;17.00;;;8.93;;
68593;SDS011;55563;52.416;13.548;2024-03-02T03:41:37;16.42;;;9.02;;
68593;SDS011;55563;52.416;13.548;2024-03-02T03:43:37;19.00;;;9.15;;
68593;SDS011;55563;52.416;13.548;2024-03-02T03:45:39;15.43;;;8.50;;
68593;SDS011;55563;52.416;13.548;2024-03-02T03:47:39;16.75;;;9.30;;
68593;SDS011;55563;52.416;13.548;2024-03-02T03:49:40;16.02;;;8.60;;
68593;SDS011;55563;52.416;13.548;2024-03-02T03:51:40;17.08;;;8.65;;
68593;SDS011;55563;52.416;13.548;2024-03-02T03:53:41;19.17;;;9.32;;
68593;SDS011;55563;52.416;13.548;2024-03-02T03:55:41;17.25;;;8.70;;
68593;SDS011;55563;52.416;13.548;2024-03-02T03:57:42;17.60;;;8.43;;
68593;SDS011;55563;52.416;13.548;2024-03-02T03:59:43;17.75;;;9.50;;
68593;SDS011;55563;52.416;13.548;2024-03-02T04:01:45;18.30;;;8.73;;
68593;SDS011;55563;52.416;13.548;2024-03-02T04:03:45;17.15;;;8.52;;
68593;SDS011;55563;52.416;13.548;2024-03-02T04:05:46;16.33;;;8.55;;
68593;SDS011;55563;52.416;13.548;2024-03-02T04:07:46;16.67;;;9.30;;
68593;SDS011;55563;52.416;13.548;2024-03-02T04:09:47;16.23;;;8.60;;
68593;SDS011;55563;52.416;13.548;2024-03-02T04:11:48;17.80;;;9.15;;
68593;SDS011;55563;52.416;13.548;2024-03-02T04:13:48;16.60;;;8.88;;
68593;SDS011;55563;52.416;13.548;2024-03-02T04:15:49;17.10;;;8.75;;
68593;SDS011;55563;52.416;13.548;2024-03-02T04:17:49;17.58;;;8.60;;
68593;SDS011;55563;52.416;13.548;2024-03-02T04:19:50;17.38;;;8.82;;
68593;SDS011;55563;52.416;13.548;2024-03-02T04:21:51;17.77;;;8.52;;
68593;SDS011;55563;52.416;13.548;2024-03-02T04:23:51;15.55;;;8.13;;
68593;SDS011;55563;52.416;13.548;2024-03-02T04:25:52;15.02;;;7.90;;
68593;SDS011;55563;52.416;13.548;2024-03-02T04:27:53;15.55;;;8.05;;
68593;SDS011;55563;52.416;13.548;2024-03-02T04:29:54;16.98;;;8.35;;
68593;SDS011;55563;52.416;13.548;2024-03-02T04:31:54;18.08;;;8.38;;
68593;SDS011;55563;52.416;13.548;2024-03-02T04:33:55;15.98;;;7.97;;
68593;SDS011;55563;52.416;13.548;2024-03-02T04:35:55;15.98;;;7.97;;
68593;SDS011;55563;52.416;13.548;2024-03-02T04:37:58;17.15;;;8.68;;
68593;SDS011;55563;52.416;13.548;2024-03-02T04:39:58;15.07;;;8.20;;
68593;SDS011;55563;52.416;13.548;2024-03-02T04:41:59;14.75;;;7.95;;
68593;SDS011;55563;52.416;13.548;2024-03-02T04:43:59;15.88;;;8.10;;
68593;SDS011;55563;52.416;13.548;2024-03-02T04:46:00;15.13;;;8.15;;
68593;SDS011;55563;52.416;13.548;2024-03-02T04:48:01;16.25;;;8.10;;
68593;SDS011;55563;52.416;13.548;2024-03-02T04:50:02;15.90;;;8.20;;
68593;SDS011;55563;52.416;13.548;2024-03-02T04:52:03;15.48;;;7.97;;
68593;SDS011;55563;52.416;13.548;2024-03-02T04:54:03;16.13;;;7.85;;
68593;SDS011;55563;52.416;13.548;2024-03-02T04:56:05;16.35;;;8.35;;
68593;SDS011;55563;52.416;13.548;2024-03-02T04:58:26;17.90;;;8.80;;
68593;SDS011;55563;52.416;13.548;2024-03-02T05:00:26;15.57;;;7.57;;
68593;SDS011;55563;52.416;13.548;2024-03-02T05:02:27;16.40;;;8.07;;
68593;SDS011;55563;52.416;13.548;2024-03-02T05:04:27;14.88;;;8.07;;
68593;SDS011;55563;52.416;13.548;2024-03-02T05:06:28;14.52;;;7.72;;
68593;SDS011;55563;52.416;13.548;2024-03-02T05:08:28;14.82;;;8.05;;
68593;SDS011;55563;52.416;13.548;2024-03-02T05:10:29;14.85;;;7.65;;
68593;SDS011;55563;52.416;13.548;2024-03-02T05:12:30;15.10;;;7.88;;
68593;SDS011;55563;52.416;13.548;2024-03-02T05:14:49;14.43;;;7.60;;
68593;SDS011;55563;52.416;13.548;2024-03-02T05:16:50;14.88;;;7.95;;
68593;SDS011;55563;52.416;13.548;2024-03-02T05:18:51;17.65;;;8.27;;
68593;SDS011;55563;52.416;13.548;2024-03-02T05:20:51;17.23;;;8.40;;
68593;SDS011;55563;52.416;13.548;2024-03-02T05:22:52;16.30;;;8.00;;
68593;SDS011;55563;52.416;13.548;2024-03-02T05:24:52;16.95;;;8.07;;
68593;SDS011;55563;52.416;13.548;2024-03-02T05:26:53;15.55;;;8.07;;
68593;SDS011;55563;52.416;13.548;2024-03-02T05:28:54;17.15;;;8.65;;
68593;SDS011;55563;52.416;13.548;2024-03-02T05:30:55;15.27;;;8.40;;
68593;SDS011;55563;52.416;13.548;2024-03-02T05:32:56;16.17;;;8.00;;
68593;SDS011;55563;52.416;13.548;2024-03-02T05:34:56;16.23;;;8.40;;
68593;SDS011;55563;52.416;13.548;2024-03-02T05:36:57;17.25;;;8.88;;
68593;SDS011;55563;52.416;13.548;2024-03-02T05:38:58;16.48;;;8.55;;
68593;SDS011;55563;52.416;13.548;2024-03-02T05:40:58;16.92;;;8.60;;
68593;SDS011;55563;52.416;13.548;2024-03-02T05:42:59;16.08;;;8.27;;
68593;SDS011;55563;52.416;13.548;2024-03-02T05:44:59;18.02;;;10.43;;
68593;SDS011;55563;52.416;13.548;2024-03-02T05:47:00;43.53;;;21.05;;
68593;SDS011;55563;52.416;13.548;2024-03-02T05:49:00;65.40;;;32.65;;
68593;SDS011;55563;52.416;13.548;2024-03-02T05:51:01;41.58;;;23.33;;
68593;SDS011;55563;52.416;13.548;2024-03-02T05:53:02;29.63;;;16.90;;
68593;SDS011;55563;52.416;13.548;2024-03-02T05:55:02;21.45;;;12.02;;
68593;SDS011;55563;52.416;13.548;2024-03-02T05:57:03;22.48;;;11.85;;
68593;SDS011;55563;52.416;13.548;2024-03-02T05:59:17;19.13;;;9.70;;
68593;SDS011;55563;52.416;13.548;2024-03-02T06:01:17;16.70;;;9.18;;
68593;SDS011;55563;52.416;13.548;2024-03-02T06:03:18;16.92;;;8.77;;
68593;SDS011;55563;52.416;13.548;2024-03-02T06:05:19;18.88;;;10.10;;
68593;SDS011;55563;52.416;13.548;2024-03-02T06:07:19;17.67;;;9.30;;
68593;SDS011;55563;52.416;13.548;2024-03-02T06:09:20;17.35;;;9.25;;
68593;SDS011;55563;52.416;13.548;2024-03-02T06:11:21;17.33;;;8.68;;
68593;SDS011;55563;52.416;13.548;2024-03-02T06:13:21;17.73;;;8.95;;
68593;SDS011;55563;52.416;13.548;2024-03-02T06:15:22;18.45;;;8.90;;
68593;SDS011;55563;52.416;13.548;2024-03-02T06:17:22;18.17;;;9.52;;
68593;SDS011;55563;52.416;13.548;2024-03-02T06:19:23;15.25;;;8.70;;
68593;SDS011;55563;52.416;13.548;2024-03-02T06:21:24;17.67;;;8.50;;
68593;SDS011;55563;52.416;13.548;2024-03-02T06:23:25;17.67;;;9.50;;
68593;SDS011;55563;52.416;13.548;2024-03-02T06:25:26;17.60;;;8.68;;
68593;SDS011;55563;52.416;13.548;2024-03-02T06:27:26;17.50;;;9.20;;
68593;SDS011;55563;52.416;13.548;2024-03-02T06:29:27;19.00;;;9.65;;
68593;SDS011;55563;52.416;13.548;2024-03-02T06:31:27;18.30;;;9.63;;
68593;SDS011;55563;52.416;13.548;2024-03-02T06:33:28;21.30;;;10.07;;
68593;SDS011;55563;52.416;13.548;2024-03-02T06:35:28;18.98;;;9.95;;
68593;SDS011;55563;52.416;13.548;2024-03-02T06:37:29;19.98;;;9.75;;
68593;SDS011;55563;52.416;13.548;2024-03-02T06:39:29;20.27;;;10.00;;
68593;SDS011;55563;52.416;13.548;2024-03-02T06:43:31;15.77;;;8.40;;
68593;SDS011;55563;52.416;13.548;2024-03-02T06:45:32;16.02;;;8.63;;
68593;SDS011;55563;52.416;13.548;2024-03-02T06:47:34;20.35;;;9.25;;
68593;SDS011;55563;52.416;13.548;2024-03-02T06:49:35;19.35;;;9.15;;
68593;SDS011;55563;52.416;13.548;2024-03-02T06:51:36;18.05;;;8.75;;
68593;SDS011;55563;52.416;13.548;2024-03-02T06:53:36;18.20;;;9.32;;
68593;SDS011;55563;52.416;13.548;2024-03-02T06:55:37;17.40;;;8.90;;
68593;SDS011;55563;52.416;13.548;2024-03-02T06:57:37;21.30;;;9.50;;
68593;SDS011;55563;52.416;13.548;2024-03-02T06:59:38;17.63;;;9.38;;
68593;SDS011;55563;52.416;13.548;2024-03-02T07:01:38;20.20;;;9.95;;
68593;SDS011;55563;52.416;13.548;2024-03-02T07:03:39;20.48;;;9.98;;
68593;SDS011;55563;52.416;13.548;2024-03-02T07:05:40;18.40;;;9.32;;
68593;SDS011;55563;52.416;13.548;2024-03-02T07:07:40;17.95;;;9.40;;
68593;SDS011;55563;52.416;13.548;2024-03-02T07:09:41;18.13;;;9.30;;
68593;SDS011;55563;52.416;13.548;2024-03-02T07:11:42;19.45;;;9.48;;
68593;SDS011;55563;52.416;13.548;2024-03-02T07:13:42;17.27;;;9.05;;
68593;SDS011;55563;52.416;13.548;2024-03-02T07:15:43;22.25;;;10.50;;
68593;SDS011;55563;52.416;13.548;2024-03-02T07:18:03;19.58;;;9.40;;
68593;SDS011;55563;52.416;13.548;2024-03-02T07:20:05;16.80;;;9.13;;
68593;SDS011;55563;52.416;13.548;2024-03-02T07:22:06;18.27;;;9.02;;
68593;SDS011;55563;52.416;13.548;2024-03-02T07:24:08;18.80;;;9.10;;
68593;SDS011;55563;52.416;13.548;2024-03-02T07:26:13;20.50;;;10.15;;
68593;SDS011;55563;52.416;13.548;2024-03-02T07:28:15;19.02;;;10.35;;
68593;SDS011;55563;52.416;13.548;2024-03-02T07:30:16;20.00;;;9.90;;
68593;SDS011;55563;52.416;13.548;2024-03-02T07:32:16;19.15;;;9.90;;
68593;SDS011;55563;52.416;13.548;2024-03-02T07:34:17;16.42;;;8.93;;
68593;SDS011;55563;52.416;13.548;2024-03-02T07:36:17;18.48;;;9.60;;
68593;SDS011;55563;52.416;13.548;2024-03-02T07:38:19;20.38;;;9.93;;
68593;SDS011;55563;52.416;13.548;2024-03-02T07:40:20;18.83;;;9.93;;
68593;SDS011;55563;52.416;13.548;2024-03-02T07:42:21;19.52;;;9.85;;
68593;SDS011;55563;52.416;13.548;2024-03-02T07:44:21;19.35;;;9.35;;
68593;SDS011;55563;52.416;13.548;2024-03-02T07:46:22;19.77;;;9.82;;
68593;SDS011;55563;52.416;13.548;2024-03-02T07:48:23;18.77;;;9.45;;
68593;SDS011;55563;52.416;13.548;2024-03-02T07:50:24;18.80;;;9.55;;
68593;SDS011;55563;52.416;13.548;2024-03-02T07:52:24;18.50;;;9.43;;
68593;SDS011;55563;52.416;13.548;2024-03-02T07:54:25;18.40;;;9.43;;
68593;SDS011;55563;52.416;13.548;2024-03-02T07:56:25;23.25;;;9.90;;
68593;SDS011;55563;52.416;13.548;2024-03-02T07:58:26;20.80;;;10.45;;
68593;SDS011;55563;52.416;13.548;2024-03-02T08:00:28;19.45;;;10.07;;
68593;SDS011;55563;52.416;13.548;2024-03-02T08:02:28;21.85;;;10.27;;
68593;SDS011;55563;52.416;13.548;2024-03-02T08:04:29;19.85;;;10.10;;
68593;SDS011;55563;52.416;13.548;2024-03-02T08:06:30;18.83;;;9.52;;
68593;SDS011;55563;52.416;13.548;2024-03-02T08:08:30;22.15;;;9.90;;
68593;SDS011;55563;52.416;13.548;2024-03-02T08:10:31;17.40;;;9.77;;
68593;SDS011;55563;52.416;13.548;2024-03-02T08:12:32;19.20;;;9.82;;
68593;SDS011;55563;52.416;13.548;2024-03-02T08:14:32;20.73;;;10.32;;
68593;SDS011;55563;52.416;13.548;2024-03-02T08:16:33;20.40;;;9.85;;
68593;SDS011;55563;52.416;13.548;2024-03-02T08:18:34;19.85;;;9.68;;
68593;SDS011;55563;52.416;13.548;2024-03-02T08:20:34;23.38;;;10.10;;
68593;SDS011;55563;52.416;13.548;2024-03-02T08:22:35;20.92;;;10.13;;
68593;SDS011;55563;52.416;13.548;2024-03-02T08:24:36;18.73;;;9.32;;
68593;SDS011;55563;52.416;13.548;2024-03-02T08:26:36;18.30;;;9.15;;
68593;SDS011;55563;52.416;13.548;2024-03-02T08:28:37;21.45;;;9.57;;
68593;SDS011;55563;52.416;13.548;2024-03-02T08:30:39;18.48;;;9.18;;
68593;SDS011;55563;52.416;13.548;2024-03-02T08:32:39;19.83;;;10.02;;
68593;SDS011;55563;52.416;13.548;2024-03-02T08:34:40;17.17;;;9.38;;
68593;SDS011;55563;52.416;13.548;2024-03-02T08:36:41;17.35;;;8.88;;
68593;SDS011;55563;52.416;13.548;2024-03-02T08:38:41;19.35;;;9.38;;
68593;SDS011;55563;52.416;13.548;2024-03-02T08:40:44;17.52;;;9.35;;
68593;SDS011;55563;52.416;13.548;2024-03-02T08:42:45;18.40;;;9.45;;
68593;SDS011;55563;52.416;13.548;2024-03-02T08:44:46;19.08;;;9.68;;
68593;SDS011;55563;52.416;13.548;2024-03-02T08:46:47;20.23;;;9.00;;
68593;SDS011;55563;52.416;13.548;2024-03-02T08:48:47;19.38;;;9.50;;
68593;SDS011;55563;52.416;13.548;2024-03-02T08:50:48;19.45;;;9.20;;
68593;SDS011;55563;52.416;13.548;2024-03-02T08:52:49;16.20;;;8.43;;
68593;SDS011;55563;52.416;13.548;2024-03-02T08:54:49;18.17;;;8.77;;
68593;SDS011;55563;52.416;13.548;2024-03-02T08:56:50;17.38;;;8.73;;
68593;SDS011;55563;52.416;13.548;2024-03-02T08:58:52;17.27;;;8.60;;
68593;SDS011;55563;52.416;13.548;2024-03-02T09:00:52;18.27;;;9.07;;
68593;SDS011;55563;52.416;13.548;2024-03-02T09:02:53;18.85;;;9.25;;
68593;SDS011;55563;52.416;13.548;2024-03-02T09:04:54;17.65;;;9.45;;
68593;SDS011;55563;52.416;13.548;2024-03-02T09:06:55;19.17;;;9.48;;
68593;SDS011;55563;52.416;13.548;2024-03-02T09:08:55;17.52;;;8.85;;
68593;SDS011;55563;52.416;13.548;2024-03-02T09:10:56;16.40;;;8.40;;
68593;SDS011;55563;52.416;13.548;2024-03-02T09:12:58;18.75;;;8.93;;
68593;SDS011;55563;52.416;13.548;2024-03-02T09:15:00;17.80;;;8.55;;
68593;SDS011;55563;52.416;13.548;2024-03-02T09:17:02;16.35;;;8.43;;
68593;SDS011;55563;52.416;13.548;2024-03-02T09:19:02;17.13;;;8.80;;
68593;SDS011;55563;52.416;13.548;2024-03-02T09:21:03;16.65;;;8.70;;
68593;SDS011;55563;52.416;13.548;2024-03-02T09:23:04;16.75;;;8.70;;
68593;SDS011;55563;52.416;13.548;2024-03-02T09:25:05;18.40;;;8.57;;
68593;SDS011;55563;52.416;13.548;2024-03-02T09:27:08;16.75;;;8.50;;
68593;SDS011;55563;52.416;13.548;2024-03-02T09:29:09;16.45;;;8.05;;
68593;SDS011;55563;52.416;13.548;2024-03-02T09:31:10;18.05;;;8.48;;
68593;SDS011;55563;52.416;13.548;2024-03-02T09:33:10;18.65;;;8.50;;
68593;SDS011;55563;52.416;13.548;2024-03-02T09:35:11;16.98;;;7.93;;
68593;SDS011;55563;52.416;13.548;2024-03-02T09:37:12;17.85;;;9.02;;
68593;SDS011;55563;52.416;13.548;2024-03-02T09:39:12;17.90;;;8.85;;
68593;SDS011;55563;52.416;13.548;2024-03-02T09:41:14;17.88;;;8.50;;
68593;SDS011;55563;52.416;13.548;2024-03-02T09:43:15;15.48;;;7.72;;
68593;SDS011;55563;52.416;13.548;2024-03-02T09:45:16;17.00;;;8.40;;
68593;SDS011;55563;52.416;13.548;2024-03-02T09:47:19;17.48;;;8.13;;
68593;SDS011;55563;52.416;13.548;2024-03-02T09:49:19;16.65;;;8.27;;
68593;SDS011;55563;52.416;13.548;2024-03-02T09:51:20;16.10;;;7.75;;
68593;SDS011;55563;52.416;13.548;2024-03-02T09:53:21;20.70;;;10.23;;
68593;SDS011;55563;52.416;13.548;2024-03-02T09:55:23;24.33;;;12.20;;
68593;SDS011;55563;52.416;13.548;2024-03-02T09:57:25;16.40;;;8.20;;
68593;SDS011;55563;52.416;13.548;2024-03-02T09:59:25;16.25;;;7.45;;
68593;SDS011;55563;52.416;13.548;2024-03-02T10:01:28;14.25;;;7.55;;
68593;SDS011;55563;52.416;13.548;2024-03-02T10:03:28;17.63;;;8.23;;
68593;SDS011;55563;52.416;13.548;2024-03-02T10:05:30;15.60;;;7.50;;
68593;SDS011;55563;52.416;13.548;2024-03-02T10:07:30;15.23;;;7.13;;
68593;SDS011;55563;52.416;13.548;2024-03-02T10:09:31;16.40;;;7.20;;
68593;SDS011;55563;52.416;13.548;2024-03-02T10:11:32;16.45;;;7.57;;
68593;SDS011;55563;52.416;13.548;2024-03-02T10:13:36;14.10;;;7.10;;
68593;SDS011;55563;52.416;13.548;2024-03-02T10:15:38;14.35;;;6.90;;
68593;SDS011;55563;52.416;13.548;2024-03-02T10:17:41;13.68;;;7.22;;
68593;SDS011;55563;52.416;13.548;2024-03-02T10:19:41;13.73;;;7.30;;
68593;SDS011;55563;52.416;13.548;2024-03-02T10:21:42;15.85;;;7.63;;
68593;SDS011;55563;52.416;13.548;2024-03-02T10:23:43;13.50;;;7.35;;
68593;SDS011;55563;52.416;13.548;2024-03-02T10:25:44;15.20;;;7.25;;
68593;SDS011;55563;52.416;13.548;2024-03-02T10:27:45;15.35;;;7.28;;
68593;SDS011;55563;52.416;13.548;2024-03-02T10:29:50;14.82;;;7.05;;
68593;SDS011;55563;52.416;13.548;2024-03-02T10:31:51;14.45;;;7.28;;
68593;SDS011;55563;52.416;13.548;2024-03-02T10:33:52;16.63;;;7.82;;
68593;SDS011;55563;52.416;13.548;2024-03-02T10:35:53;14.38;;;6.97;;
68593;SDS011;55563;52.416;13.548;2024-03-02T10:37:53;15.30;;;6.90;;
68593;SDS011;55563;52.416;13.548;2024-03-02T10:39:55;16.33;;;7.60;;
68593;SDS011;55563;52.416;13.548;2024-03-02T10:41:55;14.32;;;7.25;;
68593;SDS011;55563;52.416;13.548;2024-03-02T10:46:01;13.55;;;6.97;;
68593;SDS011;55563;52.416;13.548;2024-03-02T10:48:01;15.75;;;7.90;;
68593;SDS011;55563;52.416;13.548;2024-03-02T10:50:04;16.75;;;7.95;;
68593;SDS011;55563;52.416;13.548;2024-03-02T10:52:08;15.13;;;7.38;;
68593;SDS011;55563;52.416;13.548;2024-03-02T10:54:09;14.77;;;7.25;;
68593;SDS011;55563;52.416;13.548;2024-03-02T10:56:10;15.88;;;7.65;;
68593;SDS011;55563;52.416;13.548;2024-03-02T10:58:16;16.52;;;8.05;;
68593;SDS011;55563;52.416;13.548;2024-03-02T11:00:18;16.05;;;7.55;;
68593;SDS011;55563;52.416;13.548;2024-03-02T11:02:24;17.67;;;7.38;;
68593;SDS011;55563;52.416;13.548;2024-03-02T11:04:26;18.05;;;7.72;;
68593;SDS011;55563;52.416;13.548;2024-03-02T11:06:28;16.05;;;7.50;;
68593;SDS011;55563;52.416;13.548;2024-03-02T11:08:32;14.57;;;7.50;;
68593;SDS011;55563;52.416;13.548;2024-03-02T11:10:36;15.68;;;7.60;;
68593;SDS011;55563;52.416;13.548;2024-03-02T11:12:46;15.15;;;7.38;;
68593;SDS011;55563;52.416;13.548;2024-03-02T11:14:53;15.25;;;7.22;;
68593;SDS011;55563;52.416;13.548;2024-03-02T11:16:56;17.33;;;8.40;;
68593;SDS011;55563;52.416;13.548;2024-03-02T11:18:56;14.63;;;7.60;;
68593;SDS011;55563;52.416;13.548;2024-03-02T11:20:58;17.13;;;8.63;;
68593;SDS011;55563;52.416;13.548;2024-03-02T11:23:04;13.35;;;7.22;;
68593;SDS011;55563;52.416;13.548;2024-03-02T11:25:11;16.92;;;7.55;;
68593;SDS011;55563;52.416;13.548;2024-03-02T11:29:56;15.63;;;7.05;;
68593;SDS011;55563;52.416;13.548;2024-03-02T11:31:57;17.88;;;6.97;;
68593;SDS011;55563;52.416;13.548;2024-03-02T11:34:11;13.13;;;6.68;;
68593;SDS011;55563;52.416;13.548;2024-03-02T11:36:18;12.40;;;6.88;;
68593;SDS011;55563;52.416;13.548;2024-03-02T11:38:18;16.15;;;7.68;;
68593;SDS011;55563;52.416;13.548;2024-03-02T11:40:22;15.50;;;7.68;;
68593;SDS011;55563;52.416;13.548;2024-03-02T11:42:23;16.55;;;6.80;;
68593;SDS011;55563;52.416;13.548;2024-03-02T11:44:24;13.45;;;6.40;;
68593;SDS011;55563;52.416;13.548;2024-03-02T11:46:26;13.43;;;6.85;;
68593;SDS011;55563;52.416;13.548;2024-03-02T11:48:27;14.43;;;6.90;;
68593;SDS011;55563;52.416;13.548;2024-03-02T11:50:30;11.98;;;6.15;;
68593;SDS011;55563;52.416;13.548;2024-03-02T11:52:35;11.77;;;5.85;;
68593;SDS011;55563;52.416;13.548;2024-03-02T11:54:38;15.50;;;6.50;;
68593;SDS011;55563;52.416;13.548;2024-03-02T11:56:41;13.55;;;6.72;;